| time (UTC) | temp F | wind direction | speed MPH | gust MPH | rain 1hr in | rain 24hr in | rain mn in | humidity % | barometer mb |
| 20260905204558 | 86 | 230 | 0.0 | 1.0 | 0.00 | 0.25 | 0.24 | 79 | 1012.9 |
| 20260905204058 | 85 | 0 | 0.0 | 3.0 | 0.00 | 0.25 | 0.24 | 87 | 1012.9 |
| 20260905203600 | 85 | 20 | 0.0 | 3.0 | 0.00 | 0.25 | 0.24 | 87 | 1013.0 |
| 20260905203101 | 85 | 140 | 1.0 | 3.0 | 0.00 | 0.25 | 0.24 | 84 | 1013.3 |
| 20260905202557 | 84 | 0 | 0.0 | 1.0 | 0.00 | 0.25 | 0.24 | 85 | 1013.5 |
| 20260905202058 | 84 | 0 | 0.0 | 3.0 | 0.00 | 0.25 | 0.24 | 88 | 1013.4 |
| 20260905201602 | 83 | 0 | 0.0 | 3.0 | 0.00 | 0.25 | 0.24 | 86 | 1013.4 |
| 20260905201101 | 83 | 0 | 1.0 | 3.0 | 0.00 | 0.25 | 0.24 | 89 | 1013.5 |
| 20260905200557 | 83 | 0 | 0.0 | 0.0 | 0.00 | 0.25 | 0.24 | 92 | 1013.5 |
| 20260905200128 | 82 | 0 | 0.0 | 0.0 | 0.00 | 0.25 | 0.24 | 93 | 1013.6 |
| 20260905195601 | 82 | 0 | 0.0 | 1.0 | 0.00 | 0.25 | 0.24 | 90 | 1013.7 |
| 20260905195058 | 81 | 0 | 0.0 | 1.0 | 0.01 | 0.25 | 0.24 | 91 | 1013.7 |
| 20260905194603 | 81 | 0 | 0.0 | 1.0 | 0.01 | 0.25 | 0.24 | 95 | 1013.7 |
| 20260905194103 | 81 | 0 | 0.0 | 1.0 | 0.03 | 0.25 | 0.24 | 93 | 1013.8 |
| 20260905193558 | 81 | 65 | 0.0 | 0.0 | 0.05 | 0.25 | 0.24 | 95 | 1013.9 |
| 20260905193058 | 81 | 0 | 0.0 | 1.0 | 0.10 | 0.25 | 0.24 | 96 | 1014.0 |
| 20260905192601 | 80 | 0 | 0.0 | 1.0 | 0.12 | 0.25 | 0.24 | 95 | 1014.1 |
| 20260905192058 | 80 | 0 | 0.0 | 1.0 | 0.12 | 0.25 | 0.24 | 95 | 1014.3 |
| 20260905191559 | 80 | 0 | 0.0 | 1.0 | 0.12 | 0.25 | 0.24 | 96 | 1014.4 |
| 20260905191057 | 80 | 37 | 0.0 | 1.0 | 0.12 | 0.25 | 0.24 | 96 | 1014.7 |
| 20260905190557 | 79 | 0 | 0.0 | 1.0 | 0.12 | 0.25 | 0.24 | 96 | 1014.7 |
| 20260905185557 | 80 | 0 | 0.0 | 0.0 | 0.12 | 0.25 | 0.24 | 95 | 1014.8 |
| 20260905185101 | 79 | 0 | 0.0 | 0.0 | 0.11 | 0.24 | 0.23 | 94 | 1015.0 |
| 20260905184606 | 80 | 0 | 0.0 | 0.0 | 0.11 | 0.24 | 0.23 | 95 | 1015.2 |
| 20260905184102 | 80 | 0 | 0.0 | 1.0 | 0.09 | 0.22 | 0.21 | 94 | 1015.3 |
| 20260905183558 | 80 | 0 | 0.0 | 1.0 | 0.07 | 0.20 | 0.19 | 93 | 1015.3 |
| 20260905183102 | 80 | 0 | 0.0 | 1.0 | 0.01 | 0.14 | 0.13 | 92 | 1015.4 |
| 20260905182557 | 81 | 0 | 0.0 | 1.0 | 0.00 | 0.13 | 0.12 | 91 | 1015.6 |
| 20260905182058 | 81 | 356 | 0.0 | 1.0 | 0.00 | 0.13 | 0.12 | 91 | 1015.6 |
| 20260905181607 | 81 | 0 | 0.0 | 2.0 | 0.00 | 0.13 | 0.12 | 90 | 1015.7 |
| 20260905181057 | 82 | 0 | 0.0 | 2.0 | 0.00 | 0.13 | 0.12 | 91 | 1015.4 |
| 20260905180554 | 82 | 0 | 0.0 | 4.0 | 0.00 | 0.13 | 0.12 | 90 | 1015.4 |
| 20260905180115 | 82 | 94 | 1.0 | 4.0 | 0.00 | 0.13 | 0.12 | 89 | 1015.4 |
| 20260905175558 | 82 | 0 | 0.0 | 3.0 | 0.00 | 0.13 | 0.12 | 95 | 1015.3 |
| 20260905175102 | 81 | 0 | 0.0 | 3.0 | 0.00 | 0.13 | 0.12 | 97 | 1015.4 |
| 20260905174600 | 81 | 98 | 0.0 | 3.0 | 0.00 | 0.13 | 0.12 | 96 | 1015.6 |
| 20260905174058 | 80 | 107 | 0.0 | 2.0 | 0.00 | 0.13 | 0.12 | 93 | 1015.6 |
| 20260905173601 | 80 | 0 | 0.0 | 1.0 | 0.00 | 0.13 | 0.12 | 98 | 1015.8 |
| 20260905173127 | 80 | 0 | 0.0 | 1.0 | 0.00 | 0.13 | 0.12 | 97 | 1015.7 |
| 20260905172558 | 79 | 89 | 0.0 | 1.0 | 0.04 | 0.13 | 0.12 | 94 | 1015.5 |
| 20260905172058 | 79 | 0 | 0.0 | 1.0 | 0.08 | 0.13 | 0.12 | 95 | 1015.5 |
| 20260905171602 | 79 | 0 | 0.0 | 1.0 | 0.10 | 0.13 | 0.12 | 98 | 1015.7 |
| 20260905171058 | 78 | 0 | 0.0 | 1.0 | 0.11 | 0.13 | 0.12 | 95 | 1015.8 |
| 20260905170556 | 78 | 0 | 0.0 | 2.0 | 0.11 | 0.13 | 0.12 | 95 | 1016.0 |
| 20260905170104 | 78 | 0 | 0.0 | 2.0 | 0.11 | 0.13 | 0.12 | 96 | 1016.1 |
| 20260905165558 | 78 | 89 | 0.0 | 2.0 | 0.11 | 0.13 | 0.12 | 97 | 1016.2 |
| 20260905165100 | 79 | 328 | 0.0 | 2.0 | 0.11 | 0.13 | 0.12 | 99 | 1016.2 |
| 20260905164615 | 79 | 113 | 0.0 | 2.0 | 0.11 | 0.13 | 0.12 | 97 | 1016.4 |
| 20260905164054 | 78 | 0 | 0.0 | 2.0 | 0.11 | 0.13 | 0.12 | 95 | 1016.3 |
| 20260905163556 | 78 | 93 | 0.0 | 2.0 | 0.11 | 0.13 | 0.12 | 98 | 1016.5 |
| 20260905163101 | 79 | 0 | 0.0 | 2.0 | 0.11 | 0.13 | 0.12 | 95 | 1016.5 |
| 20260905162556 | 80 | 44 | 0.0 | 2.0 | 0.07 | 0.09 | 0.08 | 93 | 1016.5 |
| 20260905162055 | 80 | 0 | 0.0 | 1.0 | 0.03 | 0.05 | 0.04 | 94 | 1016.5 |
| 20260905161559 | 80 | 0 | 0.0 | 1.0 | 0.01 | 0.03 | 0.02 | 93 | 1016.6 |
| 20260905161058 | 80 | 0 | 0.0 | 2.0 | 0.00 | 0.02 | 0.01 | 96 | 1016.6 |
| 20260905160555 | 80 | 338 | 0.0 | 2.0 | 0.00 | 0.02 | 0.01 | 93 | 1016.5 |
| 20260905160107 | 80 | 0 | 0.0 | 2.0 | 0.00 | 0.02 | 0.01 | 92 | 1016.4 |
| 20260905155558 | 80 | 0 | 0.0 | 3.0 | 0.00 | 0.02 | 0.01 | 90 | 1016.4 |
| 20260905155055 | 81 | 0 | 0.0 | 3.0 | 0.00 | 0.02 | 0.01 | 90 | 1016.4 |
| 20260905154605 | 82 | 44 | 0.0 | 3.0 | 0.00 | 0.02 | 0.01 | 90 | 1016.2 |
| 20260905154056 | 82 | 352 | 0.0 | 1.0 | 0.00 | 0.02 | 0.01 | 89 | 1016.1 |
| 20260905153559 | 82 | 338 | 0.0 | 2.0 | 0.00 | 0.02 | 0.01 | 89 | 1016.1 |
| 20260905153057 | 82 | 309 | 0.0 | 2.0 | 0.00 | 0.02 | 0.01 | 92 | 1016.1 |
| 20260905152556 | 82 | 0 | 0.0 | 1.0 | 0.00 | 0.02 | 0.01 | 87 | 1016.2 |
| 20260905152058 | 83 | 319 | 0.0 | 3.0 | 0.00 | 0.02 | 0.01 | 86 | 1016.2 |
| 20260905151609 | 83 | 330 | 0.0 | 3.0 | 0.00 | 0.02 | 0.01 | 86 | 1016.2 |
| 20260905151055 | 83 | 301 | 0.0 | 4.0 | 0.00 | 0.02 | 0.01 | 86 | 1016.1 |
| 20260905150559 | 83 | 0 | 0.0 | 4.0 | 0.00 | 0.02 | 0.01 | 89 | 1016.1 |
| 20260905150105 | 82 | 84 | 0.0 | 2.0 | 0.00 | 0.02 | 0.01 | 90 | 1016.1 |
| 20260905145554 | 81 | 170 | 0.0 | 2.0 | 0.00 | 0.02 | 0.01 | 91 | 1016.1 |
| 20260905145055 | 81 | 0 | 0.0 | 1.0 | 0.00 | 0.02 | 0.01 | 93 | 1016.2 |
| 20260905144608 | 80 | 222 | 0.0 | 0.0 | 0.00 | 0.02 | 0.01 | 92 | 1016.1 |
| 20260905144054 | 80 | 0 | 0.0 | 0.0 | 0.00 | 0.02 | 0.01 | 93 | 1016.1 |
| 20260905143554 | 80 | 0 | 0.0 | 1.0 | 0.00 | 0.02 | 0.01 | 93 | 1016.1 |
| 20260905143102 | 80 | 0 | 0.0 | 1.0 | 0.00 | 0.02 | 0.01 | 94 | 1016.1 |
| 20260905142555 | 80 | 0 | 0.0 | 1.0 | 0.00 | 0.02 | 0.01 | 94 | 1016.1 |
| 20260905142055 | 79 | 0 | 0.0 | 1.0 | 0.00 | 0.02 | 0.01 | 95 | 1016.1 |
| 20260905141605 | 79 | 253 | 0.0 | 1.0 | 0.00 | 0.02 | 0.01 | 95 | 1016.2 |
| 20260905141055 | 79 | 0 | 0.0 | 1.0 | 0.00 | 0.02 | 0.01 | 96 | 1016.2 |
| 20260905140555 | 79 | 0 | 0.0 | 1.0 | 0.00 | 0.02 | 0.01 | 96 | 1016.2 |
| 20260905140116 | 78 | 0 | 0.0 | 1.0 | 0.00 | 0.02 | 0.01 | 97 | 1016.1 |
| 20260905135556 | 78 | 0 | 0.0 | 1.0 | 0.00 | 0.02 | 0.01 | 97 | 1016.1 |
| 20260905135055 | 78 | 0 | 0.0 | 1.0 | 0.00 | 0.02 | 0.01 | 97 | 1016.2 |
| 20260905134605 | 78 | 0 | 0.0 | 1.0 | 0.00 | 0.02 | 0.01 | 97 | 1016.2 |
| 20260905134058 | 78 | 0 | 0.0 | 1.0 | 0.00 | 0.02 | 0.01 | 97 | 1016.2 |
| 20260905133556 | 77 | 0 | 0.0 | 1.0 | 0.00 | 0.02 | 0.01 | 97 | 1016.1 |
| 20260905133105 | 77 | 0 | 0.0 | 2.0 | 0.00 | 0.02 | 0.01 | 97 | 1016.1 |
| 20260905132555 | 76 | 0 | 0.0 | 2.0 | 0.00 | 0.02 | 0.01 | 97 | 1016.1 |
| 20260905132058 | 76 | 82 | 0.0 | 1.0 | 0.00 | 0.02 | 0.01 | 97 | 1016.0 |
| 20260905131608 | 76 | 0 | 0.0 | 1.0 | 0.00 | 0.02 | 0.01 | 97 | 1016.0 |
| 20260905131055 | 76 | 309 | 0.0 | 1.0 | 0.00 | 0.02 | 0.01 | 97 | 1016.1 |
| 20260905130555 | 76 | 95 | 0.0 | 1.0 | 0.00 | 0.02 | 0.01 | 97 | 1015.9 |
| 20260905130105 | 76 | 0 | 0.0 | 1.0 | 0.00 | 0.02 | 0.01 | 97 | 1015.9 |
| 20260905125554 | 76 | 0 | 0.0 | 1.0 | 0.00 | 0.02 | 0.01 | 97 | 1015.9 |
| 20260905125058 | 75 | 0 | 0.0 | 1.0 | 0.00 | 0.02 | 0.01 | 97 | 1015.7 |
| 20260905124601 | 76 | 0 | 0.0 | 0.0 | 0.00 | 0.02 | 0.01 | 97 | 1015.7 |
| 20260905124058 | 75 | 0 | 0.0 | 0.0 | 0.00 | 0.02 | 0.01 | 97 | 1015.5 |
| 20260905123558 | 75 | 0 | 0.0 | 0.0 | 0.00 | 0.02 | 0.01 | 97 | 1015.5 |
| 20260905123109 | 75 | 0 | 0.0 | 0.0 | 0.00 | 0.02 | 0.01 | 97 | 1015.6 |
| 20260905122558 | 75 | 0 | 0.0 | 0.0 | 0.00 | 0.02 | 0.01 | 97 | 1015.5 |
| 20260905122058 | 75 | 0 | 0.0 | 0.0 | 0.00 | 0.02 | 0.01 | 97 | 1015.6 |
| 20260905121602 | 75 | 0 | 0.0 | 0.0 | 0.00 | 0.02 | 0.01 | 97 | 1015.6 |
| 20260905121058 | 75 | 0 | 0.0 | 0.0 | 0.00 | 0.02 | 0.01 | 97 | 1015.8 |
| 20260905120555 | 75 | 0 | 0.0 | 1.0 | 0.00 | 0.02 | 0.01 | 97 | 1015.7 |
| 20260905120113 | 75 | 0 | 0.0 | 1.0 | 0.00 | 0.02 | 0.01 | 97 | 1015.7 |
| 20260905115558 | 75 | 0 | 0.0 | 0.0 | 0.00 | 0.02 | 0.01 | 97 | 1015.7 |
| 20260905115055 | 75 | 0 | 0.0 | 0.0 | 0.00 | 0.02 | 0.01 | 97 | 1015.6 |
| 20260905114612 | 75 | 0 | 0.0 | 0.0 | 0.00 | 0.02 | 0.01 | 97 | 1015.6 |
| 20260905114056 | 75 | 0 | 0.0 | 0.0 | 0.00 | 0.02 | 0.01 | 97 | 1015.5 |
| 20260905113554 | 74 | 0 | 0.0 | 0.0 | 0.00 | 0.02 | 0.01 | 97 | 1015.4 |
| 20260905113101 | 74 | 0 | 0.0 | 0.0 | 0.00 | 0.02 | 0.01 | 97 | 1015.5 |
| 20260905112558 | 74 | 0 | 0.0 | 0.0 | 0.00 | 0.02 | 0.01 | 97 | 1015.4 |
| 20260905112059 | 74 | 0 | 0.0 | 0.0 | 0.00 | 0.02 | 0.01 | 97 | 1015.3 |
| 20260905111654 | 74 | 0 | 0.0 | 0.0 | 0.00 | 0.02 | 0.01 | 97 | 1015.1 |
| 20260905111058 | 74 | 0 | 0.0 | 0.0 | 0.00 | 0.02 | 0.01 | 97 | 1014.9 |
| 20260905110558 | 74 | 0 | 0.0 | 0.0 | 0.00 | 0.02 | 0.01 | 97 | 1014.9 |
| 20260905110108 | 74 | 0 | 0.0 | 0.0 | 0.00 | 0.02 | 0.01 | 97 | 1014.9 |
| 20260905105555 | 75 | 0 | 0.0 | 0.0 | 0.00 | 0.02 | 0.01 | 97 | 1014.8 |
| 20260905105057 | 75 | 0 | 0.0 | 0.0 | 0.00 | 0.02 | 0.01 | 97 | 1014.9 |
| 20260905104605 | 74 | 0 | 0.0 | 0.0 | 0.00 | 0.02 | 0.01 | 97 | 1014.9 |
| 20260905104055 | 75 | 0 | 0.0 | 0.0 | 0.00 | 0.02 | 0.01 | 97 | 1014.8 |
| 20260905103555 | 74 | 0 | 0.0 | 0.0 | 0.00 | 0.02 | 0.01 | 97 | 1015.0 |
| 20260905103104 | 75 | 0 | 0.0 | 0.0 | 0.00 | 0.02 | 0.01 | 97 | 1015.0 |
| 20260905102558 | 75 | 0 | 0.0 | 0.0 | 0.00 | 0.02 | 0.01 | 97 | 1015.0 |
| 20260905102058 | 75 | 0 | 0.0 | 0.0 | 0.00 | 0.02 | 0.01 | 97 | 1014.9 |
| 20260905101600 | 75 | 0 | 0.0 | 0.0 | 0.00 | 0.02 | 0.01 | 97 | 1014.8 |
| 20260905101059 | 75 | 0 | 0.0 | 0.0 | 0.00 | 0.02 | 0.01 | 97 | 1014.9 |
| 20260905100556 | 75 | 0 | 0.0 | 0.0 | 0.00 | 0.02 | 0.01 | 97 | 1014.9 |
| 20260905100108 | 75 | 0 | 0.0 | 0.0 | 0.00 | 0.02 | 0.01 | 97 | 1014.9 |
| 20260905095555 | 75 | 0 | 0.0 | 0.0 | 0.00 | 0.02 | 0.01 | 97 | 1014.7 |
| 20260905095055 | 75 | 0 | 0.0 | 0.0 | 0.00 | 0.02 | 0.01 | 97 | 1014.8 |
| 20260905094602 | 75 | 0 | 0.0 | 0.0 | 0.00 | 0.02 | 0.01 | 97 | 1014.8 |
| 20260905094054 | 75 | 0 | 0.0 | 0.0 | 0.00 | 0.02 | 0.01 | 97 | 1014.8 |
| 20260905093558 | 75 | 0 | 0.0 | 0.0 | 0.00 | 0.02 | 0.01 | 97 | 1014.7 |
| 20260905093122 | 75 | 0 | 0.0 | 0.0 | 0.00 | 0.02 | 0.01 | 97 | 1014.8 |
| 20260905092555 | 75 | 0 | 0.0 | 0.0 | 0.00 | 0.02 | 0.01 | 97 | 1014.8 |
| 20260905092058 | 75 | 0 | 0.0 | 0.0 | 0.00 | 0.02 | 0.01 | 97 | 1014.8 |
| 20260905091601 | 75 | 0 | 0.0 | 0.0 | 0.00 | 0.02 | 0.01 | 97 | 1014.6 |
| 20260905091056 | 75 | 0 | 0.0 | 0.0 | 0.00 | 0.02 | 0.01 | 97 | 1014.8 |
| 20260905090558 | 75 | 0 | 0.0 | 0.0 | 0.00 | 0.02 | 0.01 | 97 | 1014.7 |
| 20260905090108 | 75 | 0 | 0.0 | 0.0 | 0.00 | 0.02 | 0.01 | 97 | 1014.6 |
| 20260905085555 | 75 | 0 | 0.0 | 0.0 | 0.00 | 0.02 | 0.01 | 97 | 1014.7 |
| 20260905085054 | 75 | 0 | 0.0 | 0.0 | 0.00 | 0.02 | 0.01 | 97 | 1014.7 |
| 20260905084603 | 75 | 0 | 0.0 | 0.0 | 0.00 | 0.02 | 0.01 | 97 | 1014.5 |
| 20260905084055 | 75 | 0 | 0.0 | 0.0 | 0.00 | 0.02 | 0.01 | 97 | 1014.6 |
| 20260905083558 | 75 | 0 | 0.0 | 0.0 | 0.00 | 0.02 | 0.01 | 97 | 1014.5 |
| 20260905083100 | 75 | 0 | 0.0 | 0.0 | 0.00 | 0.02 | 0.01 | 97 | 1014.4 |
| 20260905082558 | 75 | 0 | 0.0 | 0.0 | 0.00 | 0.02 | 0.01 | 97 | 1014.5 |
| 20260905082058 | 75 | 0 | 0.0 | 0.0 | 0.01 | 0.02 | 0.01 | 97 | 1014.4 |
| 20260905081609 | 75 | 0 | 0.0 | 0.0 | 0.01 | 0.02 | 0.01 | 97 | 1014.4 |
| 20260905081056 | 75 | 0 | 0.0 | 0.0 | 0.01 | 0.02 | 0.01 | 97 | 1014.3 |
| 20260905080558 | 75 | 0 | 0.0 | 0.0 | 0.01 | 0.02 | 0.01 | 97 | 1014.4 |
| 20260905080101 | 75 | 0 | 0.0 | 0.0 | 0.01 | 0.02 | 0.01 | 97 | 1014.4 |
| 20260905075600 | 75 | 0 | 0.0 | 2.0 | 0.01 | 0.02 | 0.01 | 97 | 1014.5 |
| 20260905075058 | 75 | 0 | 0.0 | 2.0 | 0.01 | 0.02 | 0.01 | 97 | 1014.5 |
| 20260905074601 | 75 | 150 | 0.0 | 0.0 | 0.01 | 0.02 | 0.01 | 97 | 1014.5 |
| 20260905074120 | 75 | 150 | 0.0 | 0.0 | 0.01 | 0.02 | 0.01 | 97 | 1014.3 |
| 20260905073558 | 75 | 0 | 0.0 | 1.0 | 0.01 | 0.02 | 0.01 | 97 | 1014.4 |
| 20260905073104 | 75 | 0 | 0.0 | 1.0 | 0.01 | 0.02 | 0.01 | 97 | 1014.6 |
| 20260905072559 | 75 | 150 | 0.0 | 1.0 | 0.01 | 0.02 | 0.01 | 97 | 1014.6 |
| 20260905072101 | 75 | 150 | 0.0 | 0.0 | 0.00 | 0.01 | 0.00 | 97 | 1014.3 |
| 20260905071602 | 75 | 0 | 0.0 | 0.0 | 0.00 | 0.01 | 0.00 | 97 | 1014.4 |
| 20260905071057 | 75 | 0 | 0.0 | 0.0 | 0.00 | 0.01 | 0.00 | 97 | 1014.3 |
| 20260905070600 | 75 | 0 | 0.0 | 1.0 | 0.00 | 0.01 | 0.00 | 97 | 1014.4 |
| 20260905070106 | 75 | 0 | 0.0 | 1.0 | 0.00 | 0.01 | 0.00 | 97 | 1014.5 |
| 20260905065558 | 75 | 0 | 0.0 | 0.0 | 0.00 | 0.01 | 0.00 | 97 | 1014.5 |
| 20260905065100 | 75 | 0 | 0.0 | 0.0 | 0.00 | 0.01 | 0.00 | 97 | 1014.5 |
| 20260905064626 | 75 | 0 | 0.0 | 0.0 | 0.00 | 0.01 | 0.00 | 97 | 1014.4 |
| 20260905064058 | 76 | 0 | 0.0 | 1.0 | 0.00 | 0.01 | 0.00 | 97 | 1014.4 |
| 20260905063558 | 76 | 0 | 0.0 | 1.0 | 0.00 | 0.01 | 0.00 | 97 | 1014.5 |
| 20260905063103 | 76 | 0 | 0.0 | 1.0 | 0.00 | 0.01 | 0.00 | 97 | 1014.4 |
| 20260905062557 | 76 | 0 | 0.0 | 1.0 | 0.00 | 0.01 | 0.00 | 97 | 1014.5 |
| 20260905062056 | 76 | 144 | 0.0 | 1.0 | 0.00 | 0.01 | 0.00 | 97 | 1014.5 |
| 20260905061604 | 76 | 0 | 0.0 | 1.0 | 0.00 | 0.01 | 0.00 | 97 | 1014.6 |
| 20260905061058 | 76 | 0 | 0.0 | 1.0 | 0.00 | 0.01 | 0.00 | 97 | 1014.6 |
| 20260905060554 | 76 | 144 | 0.0 | 1.0 | 0.00 | 0.01 | 0.00 | 97 | 1014.6 |
| 20260905060100 | 76 | 0 | 0.0 | 1.0 | 0.00 | 0.01 | 0.00 | 97 | 1014.8 |
| 20260905055601 | 76 | 0 | 0.0 | 0.0 | 0.00 | 0.01 | 0.00 | 97 | 1014.8 |
| 20260905055054 | 76 | 0 | 0.0 | 0.0 | 0.00 | 0.01 | 0.00 | 97 | 1014.7 |
| 20260905054600 | 76 | 0 | 0.0 | 0.0 | 0.00 | 0.01 | 0.00 | 97 | 1014.8 |
| 20260905054058 | 76 | 0 | 0.0 | 0.0 | 0.00 | 0.01 | 0.00 | 97 | 1014.7 |
| 20260905053555 | 76 | 0 | 0.0 | 1.0 | 0.00 | 0.01 | 0.00 | 97 | 1014.8 |
| 20260905053102 | 76 | 0 | 0.0 | 1.0 | 0.00 | 0.01 | 0.00 | 97 | 1014.8 |
| 20260905052557 | 76 | 0 | 0.0 | 1.0 | 0.00 | 0.01 | 0.00 | 97 | 1014.9 |
| 20260905052055 | 76 | 146 | 0.0 | 1.0 | 0.00 | 0.01 | 0.00 | 97 | 1015.0 |
| 20260905051604 | 76 | 146 | 0.0 | 1.0 | 0.00 | 0.01 | 0.00 | 97 | 1015.0 |
| 20260905051054 | 76 | 146 | 0.0 | 1.0 | 0.00 | 0.01 | 0.00 | 97 | 1015.1 |
| 20260905050556 | 76 | 146 | 0.0 | 1.0 | 0.00 | 0.01 | 0.00 | 97 | 1015.1 |
| 20260905050100 | 76 | 0 | 0.0 | 1.0 | 0.00 | 0.01 | 0.00 | 97 | 1014.9 |
| 20260905045558 | 76 | 0 | 0.0 | 1.0 | 0.00 | 0.01 | 0.01 | 97 | 1015.0 |
| 20260905045058 | 76 | 0 | 0.0 | 1.0 | 0.00 | 0.01 | 0.01 | 97 | 1014.9 |
| 20260905044600 | 76 | 0 | 0.0 | 2.0 | 0.00 | 0.01 | 0.01 | 97 | 1014.9 |
| 20260905044058 | 76 | 0 | 0.0 | 2.0 | 0.00 | 0.01 | 0.01 | 97 | 1015.0 |
| 20260905043600 | 76 | 143 | 0.0 | 2.0 | 0.00 | 0.01 | 0.01 | 97 | 1015.0 |
| 20260905043107 | 76 | 146 | 0.0 | 1.0 | 0.00 | 0.01 | 0.01 | 97 | 1015.0 |
| 20260905042557 | 76 | 0 | 0.0 | 1.0 | 0.00 | 0.01 | 0.01 | 97 | 1015.0 |
| 20260905042056 | 76 | 0 | 0.0 | 1.0 | 0.00 | 0.01 | 0.01 | 97 | 1015.0 |
| 20260905041604 | 76 | 142 | 0.0 | 1.0 | 0.00 | 0.01 | 0.01 | 97 | 1015.1 |
| 20260905041054 | 76 | 157 | 0.0 | 2.0 | 0.00 | 0.01 | 0.01 | 97 | 1015.2 |
| 20260905040554 | 76 | 0 | 0.0 | 3.0 | 0.00 | 0.01 | 0.01 | 97 | 1015.3 |
| 20260905035558 | 76 | 145 | 0.0 | 3.0 | 0.00 | 0.01 | 0.01 | 97 | 1015.5 |
| 20260905035058 | 76 | 153 | 1.0 | 3.0 | 0.00 | 0.01 | 0.01 | 97 | 1015.5 |
| 20260905034609 | 76 | 146 | 1.0 | 3.0 | 0.00 | 0.01 | 0.01 | 97 | 1015.4 |
| 20260905034055 | 76 | 155 | 0.0 | 3.0 | 0.00 | 0.01 | 0.01 | 97 | 1015.5 |
| 20260905033554 | 76 | 152 | 1.0 | 3.0 | 0.00 | 0.01 | 0.01 | 97 | 1015.7 |
| 20260905033111 | 76 | 145 | 1.0 | 2.0 | 0.00 | 0.01 | 0.01 | 97 | 1015.7 |
| 20260905032559 | 76 | 139 | 0.0 | 2.0 | 0.00 | 0.01 | 0.01 | 97 | 1015.8 |
| 20260905032058 | 76 | 139 | 1.0 | 2.0 | 0.00 | 0.01 | 0.01 | 97 | 1015.8 |
| 20260905031612 | 76 | 0 | 0.0 | 1.0 | 0.00 | 0.01 | 0.01 | 97 | 1015.8 |
| 20260905031058 | 76 | 142 | 0.0 | 2.0 | 0.00 | 0.01 | 0.01 | 97 | 1015.6 |
| 20260905030558 | 76 | 147 | 1.0 | 2.0 | 0.00 | 0.01 | 0.01 | 97 | 1015.6 |
| 20260905030119 | 76 | 143 | 1.0 | 2.0 | 0.00 | 0.01 | 0.01 | 97 | 1015.7 |
| 20260905025557 | 77 | 144 | 0.0 | 2.0 | 0.00 | 0.01 | 0.01 | 97 | 1015.7 |
| 20260905025058 | 76 | 143 | 0.0 | 1.0 | 0.00 | 0.01 | 0.01 | 97 | 1015.8 |
| 20260905024606 | 77 | 148 | 0.0 | 1.0 | 0.00 | 0.01 | 0.01 | 97 | 1015.8 |
| 20260905024058 | 77 | 151 | 0.0 | 0.0 | 0.00 | 0.01 | 0.01 | 97 | 1015.9 |
| 20260905023600 | 77 | 0 | 0.0 | 1.0 | 0.00 | 0.01 | 0.01 | 97 | 1015.8 |
| 20260905023102 | 77 | 0 | 0.0 | 1.0 | 0.00 | 0.01 | 0.01 | 97 | 1015.8 |
| 20260905022558 | 77 | 144 | 0.0 | 2.0 | 0.00 | 0.01 | 0.01 | 97 | 1015.8 |
| 20260905022058 | 77 | 147 | 0.0 | 3.0 | 0.00 | 0.01 | 0.01 | 97 | 1015.6 |
| 20260905021606 | 77 | 141 | 0.0 | 3.0 | 0.00 | 0.01 | 0.01 | 97 | 1015.7 |
| 20260905021059 | 77 | 139 | 0.0 | 2.0 | 0.00 | 0.01 | 0.01 | 97 | 1015.7 |
| 20260905020558 | 77 | 0 | 0.0 | 2.0 | 0.00 | 0.01 | 0.01 | 97 | 1015.7 |
| 20260905020108 | 77 | 137 | 1.0 | 2.0 | 0.00 | 0.01 | 0.01 | 97 | 1015.7 |
| 20260905015559 | 77 | 122 | 1.0 | 3.0 | 0.00 | 0.01 | 0.01 | 97 | 1015.7 |
| 20260905015059 | 77 | 143 | 0.0 | 3.0 | 0.00 | 0.01 | 0.01 | 97 | 1015.5 |
| 20260905014601 | 77 | 142 | 1.0 | 2.0 | 0.00 | 0.01 | 0.01 | 97 | 1015.4 |
| 20260905014059 | 77 | 145 | 0.0 | 2.0 | 0.00 | 0.01 | 0.01 | 97 | 1015.4 |
| 20260905013558 | 77 | 141 | 0.0 | 2.0 | 0.00 | 0.01 | 0.01 | 97 | 1015.3 |
| 20260905013104 | 77 | 144 | 0.0 | 1.0 | 0.00 | 0.01 | 0.01 | 97 | 1015.3 |
| 20260905012600 | 78 | 0 | 0.0 | 1.0 | 0.00 | 0.01 | 0.01 | 97 | 1015.3 |
| 20260905012100 | 78 | 0 | 0.0 | 1.0 | 0.00 | 0.01 | 0.01 | 97 | 1015.2 |
| 20260905011608 | 78 | 0 | 0.0 | 1.0 | 0.00 | 0.01 | 0.01 | 97 | 1015.3 |
| 20260905011057 | 78 | 148 | 0.0 | 1.0 | 0.00 | 0.01 | 0.01 | 97 | 1015.3 |
| 20260905010601 | 78 | 0 | 0.0 | 1.0 | 0.00 | 0.01 | 0.01 | 97 | 1015.2 |
| 20260905010103 | 78 | 139 | 0.0 | 2.0 | 0.00 | 0.01 | 0.01 | 97 | 1015.3 |
| 20260905005555 | 78 | 0 | 0.0 | 2.0 | 0.00 | 0.01 | 0.01 | 97 | 1015.2 |
| 20260905005059 | 78 | 0 | 0.0 | 2.0 | 0.00 | 0.01 | 0.01 | 97 | 1015.0 |
| 20260905004607 | 78 | 147 | 0.0 | 0.0 | 0.00 | 0.01 | 0.01 | 97 | 1015.1 |
| 20260905004058 | 78 | 0 | 0.0 | 0.0 | 0.00 | 0.01 | 0.01 | 97 | 1015.1 |
| 20260905003559 | 78 | 0 | 0.0 | 0.0 | 0.00 | 0.01 | 0.01 | 96 | 1015.3 |
| 20260905003108 | 78 | 0 | 0.0 | 0.0 | 0.00 | 0.01 | 0.01 | 96 | 1015.2 |
| 20260905002557 | 78 | 0 | 0.0 | 0.0 | 0.00 | 0.01 | 0.01 | 96 | 1015.3 |
| 20260905002058 | 78 | 0 | 0.0 | 0.0 | 0.00 | 0.01 | 0.01 | 96 | 1015.3 |
| 20260905001612 | 78 | 0 | 0.0 | 1.0 | 0.00 | 0.01 | 0.01 | 95 | 1015.2 |
| 20260905001058 | 79 | 0 | 0.0 | 1.0 | 0.00 | 0.01 | 0.01 | 95 | 1015.2 |
| 20260905000558 | 79 | 155 | 0.0 | 0.0 | 0.00 | 0.01 | 0.01 | 95 | 1015.0 |
| 20260905000105 | 79 | 0 | 0.0 | 0.0 | 0.00 | 0.01 | 0.01 | 95 | 1015.0 |
| 20260904235557 | 79 | 160 | 0.0 | 0.0 | 0.00 | 0.01 | 0.01 | 95 | 1014.8 |
| 20260904235102 | 79 | 0 | 0.0 | 0.0 | 0.00 | 0.01 | 0.01 | 94 | 1014.8 |
| 20260904234607 | 79 | 0 | 0.0 | 0.0 | 0.00 | 0.01 | 0.01 | 95 | 1014.8 |
| 20260904234058 | 78 | 0 | 0.0 | 0.0 | 0.00 | 0.01 | 0.01 | 95 | 1014.9 |
| 20260904233558 | 79 | 0 | 0.0 | 0.0 | 0.00 | 0.01 | 0.01 | 95 | 1014.9 |
| 20260904233057 | 79 | 0 | 0.0 | 0.0 | 0.00 | 0.01 | 0.01 | 95 | 1014.9 |
| 20260904232558 | 79 | 0 | 0.0 | 0.0 | 0.00 | 0.01 | 0.01 | 95 | 1015.0 |
| 20260904232100 | 79 | 0 | 0.0 | 0.0 | 0.00 | 0.01 | 0.01 | 94 | 1014.9 |
| 20260904231606 | 79 | 0 | 0.0 | 0.0 | 0.00 | 0.01 | 0.01 | 94 | 1014.8 |
| 20260904231059 | 79 | 0 | 0.0 | 0.0 | 0.00 | 0.01 | 0.01 | 93 | 1014.8 |
| 20260904230602 | 80 | 0 | 0.0 | 0.0 | 0.00 | 0.01 | 0.01 | 93 | 1014.9 |
| 20260904230101 | 80 | 0 | 0.0 | 1.0 | 0.00 | 0.01 | 0.01 | 92 | 1014.9 |
| 20260904225559 | 80 | 0 | 0.0 | 1.0 | 0.00 | 0.01 | 0.01 | 93 | 1015.0 |
| 20260904225055 | 80 | 227 | 0.0 | 2.0 | 0.00 | 0.01 | 0.01 | 93 | 1014.9 |
| 20260904224601 | 80 | 0 | 0.0 | 2.0 | 0.00 | 0.01 | 0.01 | 93 | 1015.0 |
| 20260904224058 | 80 | 0 | 0.0 | 2.0 | 0.00 | 0.01 | 0.01 | 92 | 1015.1 |
| 20260904223558 | 80 | 157 | 0.0 | 2.0 | 0.01 | 0.01 | 0.01 | 93 | 1015.2 |
| 20260904223105 | 80 | 248 | 0.0 | 5.0 | 0.01 | 0.01 | 0.01 | 93 | 1015.1 |
| 20260904222557 | 80 | 150 | 1.0 | 5.0 | 0.01 | 0.01 | 0.01 | 93 | 1015.1 |
| 20260904222057 | 80 | 0 | 0.0 | 1.0 | 0.01 | 0.01 | 0.01 | 93 | 1015.1 |
| 20260904221605 | 80 | 143 | 0.0 | 1.0 | 0.01 | 0.01 | 0.01 | 94 | 1015.0 |
| 20260904221058 | 80 | 0 | 0.0 | 1.0 | 0.01 | 0.01 | 0.01 | 94 | 1015.1 |
| 20260904220559 | 80 | 0 | 0.0 | 1.0 | 0.01 | 0.01 | 0.01 | 94 | 1015.1 |
| 20260904220111 | 80 | 0 | 0.0 | 1.0 | 0.01 | 0.01 | 0.01 | 93 | 1015.2 |
| 20260904215600 | 80 | 0 | 0.0 | 1.0 | 0.01 | 0.01 | 0.01 | 93 | 1015.2 |
| 20260904215102 | 80 | 148 | 0.0 | 2.0 | 0.01 | 0.01 | 0.01 | 93 | 1015.0 |
| 20260904214600 | 80 | 0 | 0.0 | 2.0 | 0.01 | 0.01 | 0.01 | 94 | 1014.9 |
| 20260904214058 | 81 | 0 | 0.0 | 5.0 | 0.01 | 0.01 | 0.01 | 92 | 1014.9 |
| 20260904213558 | 81 | 0 | 0.0 | 9.0 | 0.00 | 0.00 | 0.00 | 90 | 1014.8 |
| 20260904213103 | 82 | 91 | 2.0 | 9.0 | 0.00 | 0.00 | 0.00 | 85 | 1014.8 |
| 20260904212559 | 82 | 86 | 1.0 | 4.0 | 0.00 | 0.00 | 0.00 | 84 | 1014.8 |
| 20260904212059 | 83 | 0 | 0.0 | 5.0 | 0.00 | 0.00 | 0.00 | 83 | 1014.7 |
| 20260904211605 | 83 | 144 | 1.0 | 5.0 | 0.00 | 0.00 | 0.00 | 82 | 1014.7 |
| 20260904211058 | 84 | 148 | 1.0 | 5.0 | 0.00 | 0.00 | 0.00 | 81 | 1014.7 |
| 20260904210558 | 84 | 136 | 1.0 | 5.0 | 0.00 | 0.00 | 0.00 | 81 | 1014.6 |
| 20260904210106 | 84 | 134 | 0.0 | 4.0 | 0.00 | 0.00 | 0.00 | 85 | 1014.7 |
| 20260904205559 | 83 | 133 | 1.0 | 5.0 | 0.00 | 0.00 | 0.00 | 82 | 1014.6 |
| 20260904205057 | 84 | 154 | 2.0 | 6.0 | 0.00 | 0.00 | 0.00 | 85 | 1014.7 |